Time,TemperatureF,DewpointF,PressureIn,WindDirection,WindDirectionDegrees,WindSpeedMPH,WindSpeedGustMPH,Humidity,HourlyPrecipIn,Conditions,Clouds,dailyrainin,SolarRadiationWatts/m^2,SoftwareType,DateUTC
2013-05-11 00:12:00,54.0,51.0,-100.00,SSW,195,3.0,4.0,89,0.00,,,0.00,0.000000,,2013-05-11 05:12:00,
2013-05-11 00:22:00,54.0,51.0,-100.00,SSW,195,3.0,4.0,89,0.00,,,0.00,0.000000,,2013-05-11 05:22:00,
2013-05-11 00:32:00,54.0,51.0,-100.00,SSW,195,3.0,4.0,89,0.00,,,0.00,0.000000,,2013-05-11 05:32:00,
2013-05-11 00:42:00,54.0,51.0,-100.00,SSW,195,3.0,4.0,89,0.00,,,0.00,0.000000,,2013-05-11 05:42:00,
2013-05-11 01:12:00,52.0,49.0,-100.00,SSW,196,2.0,4.0,89,0.00,,,0.00,0.000000,,2013-05-11 06:12:00,
2013-05-11 01:21:00,52.0,49.0,-100.00,SSW,196,2.0,4.0,89,0.00,,,0.00,0.000000,,2013-05-11 06:21:00,
2013-05-11 01:32:00,52.0,49.0,-100.00,SSW,196,2.0,4.0,89,0.00,,,0.00,0.000000,,2013-05-11 06:32:00,
2013-05-11 01:42:00,52.0,49.0,-100.00,SSW,196,2.0,4.0,89,0.00,,,0.00,0.000000,,2013-05-11 06:42:00,
2013-05-11 02:12:00,52.0,46.0,-100.00,SSW,204,3.0,4.0,81,0.00,,,0.00,0.000000,,2013-05-11 07:12:00,
2013-05-11 02:21:00,52.0,46.0,-100.00,SSW,204,3.0,4.0,81,0.00,,,0.00,0.000000,,2013-05-11 07:21:00,
2013-05-11 02:32:00,52.0,46.0,-100.00,SSW,204,3.0,4.0,81,0.00,,,0.00,0.000000,,2013-05-11 07:32:00,
2013-05-11 02:42:00,52.0,46.0,-100.00,SSW,204,3.0,4.0,81,0.00,,,0.00,0.000000,,2013-05-11 07:42:00,
2013-05-11 03:12:00,53.0,46.0,-100.00,NW,323,5.0,12.0,76,0.00,,,0.00,0.000000,,2013-05-11 08:12:00,
2013-05-11 03:21:00,53.0,46.0,-100.00,NW,323,5.0,12.0,76,0.00,,,0.00,0.000000,,2013-05-11 08:21:00,
2013-05-11 03:32:00,53.0,46.0,-100.00,NW,323,5.0,12.0,76,0.00,,,0.00,0.000000,,2013-05-11 08:32:00,
2013-05-11 03:42:00,53.0,46.0,-100.00,NW,323,5.0,12.0,76,0.00,,,0.00,0.000000,,2013-05-11 08:42:00,
2013-05-11 04:11:00,52.0,42.0,-100.00,North,1,6.0,17.0,69,0.00,,,0.00,0.000000,,2013-05-11 09:11:00,
2013-05-11 04:21:00,52.0,42.0,-100.00,North,1,6.0,17.0,69,0.00,,,0.00,0.000000,,2013-05-11 09:21:00,
2013-05-11 04:32:00,52.0,42.0,-100.00,North,1,6.0,17.0,69,0.00,,,0.00,0.000000,,2013-05-11 09:32:00,
2013-05-11 04:42:00,52.0,42.0,-100.00,North,1,6.0,17.0,69,0.00,,,0.00,0.000000,,2013-05-11 09:42:00,
2013-05-11 05:12:00,49.0,35.0,-100.00,NNW,331,7.0,15.0,58,0.00,,,0.00,0.000000,,2013-05-11 10:12:00,
2013-05-11 05:22:00,49.0,35.0,-100.00,NNW,331,7.0,15.0,58,0.00,,,0.00,0.000000,,2013-05-11 10:22:00,
2013-05-11 05:33:00,49.0,35.0,-100.00,NNW,331,7.0,15.0,58,0.00,,,0.00,0.000000,,2013-05-11 10:33:00,
2013-05-11 05:42:00,49.0,35.0,-100.00,NNW,331,7.0,15.0,58,0.00,,,0.00,0.000000,,2013-05-11 10:42:00,
2013-05-11 06:12:00,46.0,33.0,-100.00,NNW,332,4.0,13.0,61,0.00,,,0.00,0.000000,,2013-05-11 11:12:00,
2013-05-11 06:21:00,46.0,33.0,-100.00,NNW,332,4.0,13.0,61,0.00,,,0.00,0.000000,,2013-05-11 11:21:00,
2013-05-11 06:32:00,46.0,33.0,-100.00,NNW,332,4.0,13.0,61,0.00,,,0.00,0.000000,,2013-05-11 11:32:00,
2013-05-11 06:42:00,46.0,33.0,-100.00,NNW,332,4.0,13.0,61,0.00,,,0.00,0.000000,,2013-05-11 11:42:00,
2013-05-11 07:11:00,46.0,34.0,-100.00,NW,324,5.0,8.0,63,0.00,,,-99.99,10.000000,,2013-05-11 12:11:00,
2013-05-11 07:22:00,46.0,34.0,-100.00,NW,324,5.0,8.0,63,0.00,,,-99.99,10.000000,,2013-05-11 12:22:00,
2013-05-11 07:32:00,46.0,34.0,-100.00,NW,324,5.0,8.0,63,0.00,,,-99.99,10.000000,,2013-05-11 12:32:00,
2013-05-11 07:42:00,46.0,34.0,-100.00,NW,324,5.0,8.0,63,0.00,,,-99.99,10.000000,,2013-05-11 12:42:00,
2013-05-11 08:11:00,50.0,34.0,-100.00,NW,325,7.0,15.0,55,0.00,,,-99.99,107.000000,,2013-05-11 13:11:00,
2013-05-11 08:21:00,50.0,34.0,-100.00,NW,325,7.0,15.0,55,0.00,,,-99.99,107.000000,,2013-05-11 13:21:00,
2013-05-11 08:32:00,50.0,34.0,-100.00,NW,325,7.0,15.0,55,0.00,,,-99.99,107.000000,,2013-05-11 13:32:00,
2013-05-11 08:42:00,50.0,34.0,-100.00,NW,325,7.0,15.0,55,0.00,,,-99.99,107.000000,,2013-05-11 13:42:00,
2013-05-11 09:11:00,53.0,32.0,-100.00,NNW,331,8.0,15.0,45,0.00,,,0.00,316.000000,,2013-05-11 14:11:00,
2013-05-11 09:21:00,53.0,32.0,-100.00,NNW,331,8.0,15.0,45,0.00,,,0.00,316.000000,,2013-05-11 14:21:00,
2013-05-11 09:32:00,53.0,32.0,-100.00,NNW,331,8.0,15.0,45,0.00,,,0.00,316.000000,,2013-05-11 14:32:00,
2013-05-11 09:42:00,53.0,32.0,-100.00,NNW,331,8.0,15.0,45,0.00,,,0.00,316.000000,,2013-05-11 14:42:00,
2013-05-11 10:11:00,57.0,27.0,-100.00,NNW,337,10.0,18.0,32,0.00,,,0.00,545.000000,,2013-05-11 15:11:00,
2013-05-11 10:21:00,57.0,27.0,-100.00,NNW,337,10.0,18.0,32,0.00,,,0.00,545.000000,,2013-05-11 15:21:00,
2013-05-11 10:32:00,57.0,27.0,-100.00,NNW,337,10.0,18.0,32,0.00,,,0.00,545.000000,,2013-05-11 15:32:00,
2013-05-11 10:43:00,57.0,27.0,-100.00,NNW,337,10.0,18.0,32,0.00,,,0.00,545.000000,,2013-05-11 15:43:00,
2013-05-11 11:12:00,59.0,27.0,-100.00,NNW,334,10.0,24.0,29,0.00,,,0.00,755.000000,,2013-05-11 16:12:00,
2013-05-11 11:23:00,59.0,27.0,-100.00,NNW,334,10.0,24.0,29,0.00,,,0.00,755.000000,,2013-05-11 16:23:00,
2013-05-11 11:33:00,59.0,27.0,-100.00,NNW,334,10.0,24.0,29,0.00,,,0.00,755.000000,,2013-05-11 16:33:00,
2013-05-11 11:42:00,59.0,27.0,-100.00,NNW,334,10.0,24.0,29,0.00,,,0.00,755.000000,,2013-05-11 16:42:00,
2013-05-11 12:12:00,60.0,28.0,-100.00,NNW,340,12.0,26.0,30,0.00,,,0.00,911.000000,,2013-05-11 17:12:00,
2013-05-11 12:22:00,60.0,28.0,-100.00,NNW,340,12.0,26.0,30,0.00,,,0.00,911.000000,,2013-05-11 17:22:00,
2013-05-11 12:32:00,60.0,28.0,-100.00,NNW,340,12.0,26.0,30,0.00,,,0.00,911.000000,,2013-05-11 17:32:00,
2013-05-11 12:42:00,60.0,28.0,-100.00,NNW,340,12.0,26.0,30,0.00,,,0.00,911.000000,,2013-05-11 17:42:00,
2013-05-11 13:12:00,60.0,24.0,-100.00,NNW,336,12.0,25.0,25,0.00,,,0.00,1092.000000,,2013-05-11 18:12:00,
2013-05-11 13:21:00,60.0,24.0,-100.00,NNW,336,12.0,25.0,25,0.00,,,0.00,1092.000000,,2013-05-11 18:21:00,
2013-05-11 13:32:00,60.0,24.0,-100.00,NNW,336,12.0,25.0,25,0.00,,,0.00,1092.000000,,2013-05-11 18:32:00,
2013-05-11 13:42:00,60.0,24.0,-100.00,NNW,336,12.0,25.0,25,0.00,,,0.00,1092.000000,,2013-05-11 18:42:00,
2013-05-11 14:11:00,61.0,25.0,-100.00,NNW,340,10.0,25.0,25,0.00,,,0.00,1126.000000,,2013-05-11 19:11:00,
2013-05-11 14:21:00,61.0,25.0,-100.00,NNW,340,10.0,25.0,25,0.00,,,0.00,1126.000000,,2013-05-11 19:21:00,
2013-05-11 14:32:00,61.0,25.0,-100.00,NNW,340,10.0,25.0,25,0.00,,,0.00,1126.000000,,2013-05-11 19:32:00,
2013-05-11 14:42:00,61.0,25.0,-100.00,NNW,340,10.0,25.0,25,0.00,,,0.00,1126.000000,,2013-05-11 19:42:00,
2013-05-11 15:12:00,61.0,23.0,-100.00,NW,324,13.0,23.0,23,0.00,,,0.00,1102.000000,,2013-05-11 20:12:00,
2013-05-11 15:22:00,61.0,23.0,-100.00,NW,324,13.0,23.0,23,0.00,,,0.00,1102.000000,,2013-05-11 20:22:00,
2013-05-11 15:32:00,61.0,23.0,-100.00,NW,324,13.0,23.0,23,0.00,,,0.00,1102.000000,,2013-05-11 20:32:00,
2013-05-11 15:42:00,61.0,23.0,-100.00,NW,324,13.0,23.0,23,0.00,,,0.00,1102.000000,,2013-05-11 20:42:00,
2013-05-11 16:11:00,62.0,22.0,-100.00,NNW,346,9.0,22.0,21,0.00,,,0.00,1032.000000,,2013-05-11 21:11:00,
2013-05-11 16:21:00,62.0,22.0,-100.00,NNW,346,9.0,22.0,21,0.00,,,0.00,1032.000000,,2013-05-11 21:21:00,
2013-05-11 16:33:00,62.0,22.0,-100.00,NNW,346,9.0,22.0,21,0.00,,,0.00,1032.000000,,2013-05-11 21:33:00,
2013-05-11 16:43:00,62.0,22.0,-100.00,NNW,346,9.0,22.0,21,0.00,,,0.00,1032.000000,,2013-05-11 21:43:00,
2013-05-11 17:13:00,62.0,24.0,-100.00,NNW,344,8.0,20.0,23,0.00,,,0.00,875.000000,,2013-05-11 22:13:00,
2013-05-11 17:23:00,62.0,24.0,-100.00,NNW,344,8.0,20.0,23,0.00,,,0.00,875.000000,,2013-05-11 22:23:00,
2013-05-11 17:33:00,62.0,24.0,-100.00,NNW,344,8.0,20.0,23,0.00,,,0.00,875.000000,,2013-05-11 22:33:00,
2013-05-11 17:42:00,62.0,24.0,-100.00,NNW,344,8.0,20.0,23,0.00,,,0.00,875.000000,,2013-05-11 22:42:00,
2013-05-11 18:12:00,61.0,21.0,-100.00,NNW,343,10.0,21.0,21,0.00,,,0.00,704.000000,,2013-05-11 23:12:00,
2013-05-11 18:22:00,61.0,21.0,-100.00,NNW,343,10.0,21.0,21,0.00,,,0.00,704.000000,,2013-05-11 23:22:00,
2013-05-11 18:32:00,61.0,21.0,-100.00,NNW,343,10.0,21.0,21,0.00,,,0.00,704.000000,,2013-05-11 23:32:00,
2013-05-11 18:42:00,61.0,21.0,-100.00,NNW,343,10.0,21.0,21,0.00,,,0.00,704.000000,,2013-05-11 23:42:00,
2013-05-11 19:11:00,59.0,21.0,-100.00,NW,323,8.0,18.0,23,0.00,,,0.00,479.000000,,2013-05-12 00:11:00,
2013-05-11 19:21:00,59.0,21.0,-100.00,NW,323,8.0,18.0,23,0.00,,,0.00,479.000000,,2013-05-12 00:21:00,
2013-05-11 19:32:00,59.0,21.0,-100.00,NW,323,8.0,18.0,23,0.00,,,0.00,479.000000,,2013-05-12 00:32:00,
2013-05-11 19:42:00,59.0,21.0,-100.00,NW,323,8.0,18.0,23,0.00,,,0.00,479.000000,,2013-05-12 00:42:00,
2013-05-11 20:11:00,57.0,21.0,-100.00,NNW,328,8.0,18.0,24,0.00,,,0.00,242.000000,,2013-05-12 01:11:00,
2013-05-11 20:21:00,57.0,21.0,-100.00,NNW,328,8.0,18.0,24,0.00,,,0.00,242.000000,,2013-05-12 01:21:00,
2013-05-11 20:32:00,57.0,21.0,-100.00,NNW,328,8.0,18.0,24,0.00,,,0.00,242.000000,,2013-05-12 01:32:00,
2013-05-11 20:42:00,57.0,21.0,-100.00,NNW,328,8.0,18.0,24,0.00,,,0.00,242.000000,,2013-05-12 01:42:00,
2013-05-11 21:11:00,52.0,21.0,-100.00,NNW,328,5.0,15.0,29,0.00,,,0.00,38.000000,,2013-05-12 02:11:00,
2013-05-11 21:22:00,52.0,21.0,-100.00,NNW,328,5.0,15.0,29,0.00,,,0.00,38.000000,,2013-05-12 02:22:00,
2013-05-11 21:32:00,52.0,21.0,-100.00,NNW,328,5.0,15.0,29,0.00,,,0.00,38.000000,,2013-05-12 02:32:00,
2013-05-11 21:42:00,52.0,21.0,-100.00,NNW,328,5.0,15.0,29,0.00,,,0.00,38.000000,,2013-05-12 02:42:00,
2013-05-11 22:11:00,48.0,22.0,-100.00,NW,309,3.0,8.0,36,0.00,,,0.00,0.000000,,2013-05-12 03:11:00,
2013-05-11 22:22:00,48.0,22.0,-100.00,NW,309,3.0,8.0,36,0.00,,,0.00,0.000000,,2013-05-12 03:22:00,
2013-05-11 22:33:00,48.0,22.0,-100.00,NW,309,3.0,8.0,36,0.00,,,0.00,0.000000,,2013-05-12 03:33:00,
2013-05-11 22:43:00,48.0,22.0,-100.00,NW,309,3.0,8.0,36,0.00,,,0.00,0.000000,,2013-05-12 03:43:00,
2013-05-11 23:12:00,42.0,24.0,-100.00,North,359,0.0,5.0,49,0.00,,,0.00,0.000000,,2013-05-12 04:12:00,
2013-05-11 23:22:00,42.0,24.0,-100.00,North,359,0.0,5.0,49,0.00,,,0.00,0.000000,,2013-05-12 04:22:00,
2013-05-11 23:33:00,42.0,24.0,-100.00,North,359,0.0,5.0,49,0.00,,,0.00,0.000000,,2013-05-12 04:33:00,
2013-05-11 23:43:00,42.0,24.0,-100.00,North,359,0.0,5.0,49,0.00,,,0.00,0.000000,,2013-05-12 04:43:00,